RYR2LH LICC-LIMJ
Flight info
| Callsign | RYR2LH |
|---|---|
| Flight time | 1h 18m |
| Altitude | 36000 |
| Route | BUDIN DCT NERAR DCT ELKAP DCT UPDIN DCT IDONA |
| Aircraft | B738/M-SDE2E3FGHIRWXY/LB1 |
Departure
| Time | 2026-04-23 17:07 |
|---|---|
| Airport | Catania-Fontanarossa Airport (LICC) |
Arrival
| Time | 2026-04-23 18:26 |
|---|---|
| Airport | Genoa Cristoforo Colombo Airport (LIMJ) |
| Time | Latitude | Longitude | Altitude | Speed | Heading |
|---|---|---|---|---|---|
| 2026-04-23 16:49 | 37.46927 | 15.06765 | 28 ft | 0 kts | 353° |
| 2026-04-23 16:59 | 37.46925 | 15.06765 | 28 ft | 1 kts | 353° |
| 2026-04-23 16:59 | 37.46910 | 15.06767 | 28 ft | 2 kts | 353° |
| 2026-04-23 16:59 | 37.46895 | 15.06769 | 27 ft | 2 kts | 353° |
| 2026-04-23 17:00 | 37.46880 | 15.06771 | 27 ft | 1 kts | 353° |
| 2026-04-23 17:00 | 37.46870 | 15.06773 | 27 ft | 2 kts | 340° |
| 2026-04-23 17:00 | 37.46859 | 15.06785 | 27 ft | 2 kts | 297° |
| 2026-04-23 17:00 | 37.46856 | 15.06799 | 27 ft | 0 kts | 267° |
| 2026-04-23 17:01 | 37.46857 | 15.06808 | 27 ft | 1 kts | 263° |
| 2026-04-23 17:01 | 37.46857 | 15.06809 | 27 ft | 0 kts | 263° |
| 2026-04-23 17:02 | 37.46857 | 15.06807 | 27 ft | 1 kts | 263° |
| 2026-04-23 17:03 | 37.46850 | 15.06731 | 26 ft | 18 kts | 263° |
| 2026-04-23 17:03 | 37.46833 | 15.06537 | 29 ft | 21 kts | 265° |
| 2026-04-23 17:03 | 37.46821 | 15.06366 | 32 ft | 17 kts | 265° |
| 2026-04-23 17:03 | 37.46809 | 15.06222 | 34 ft | 15 kts | 262° |
| 2026-04-23 17:04 | 37.46795 | 15.06090 | 37 ft | 15 kts | 262° |
| 2026-04-23 17:04 | 37.46788 | 15.05965 | 40 ft | 13 kts | 263° |
| 2026-04-23 17:04 | 37.46776 | 15.05840 | 42 ft | 16 kts | 263° |
| 2026-04-23 17:04 | 37.46763 | 15.05681 | 47 ft | 20 kts | 264° |
| 2026-04-23 17:05 | 37.46713 | 15.05501 | 50 ft | 22 kts | 208° |
| 2026-04-23 17:05 | 37.46594 | 15.05537 | 48 ft | 19 kts | 104° |
| 2026-04-23 17:05 | 37.46590 | 15.05575 | 48 ft | 1 kts | 88° |
| 2026-04-23 17:05 | 37.46591 | 15.05582 | 47 ft | 0 kts | 85° |
| 2026-04-23 17:06 | 37.46591 | 15.05588 | 47 ft | 1 kts | 85° |
| 2026-04-23 17:06 | 37.46591 | 15.05592 | 47 ft | 0 kts | 85° |
| 2026-04-23 17:06 | 37.46592 | 15.05599 | 47 ft | 2 kts | 85° |
| 2026-04-23 17:06 | 37.46607 | 15.05757 | 44 ft | 51 kts | 83° |
| 2026-04-23 17:07 | 37.46664 | 15.06498 | 29 ft | 118 kts | 82° |
| 2026-04-23 17:07 | 37.46771 | 15.07751 | 118 ft | 161 kts | 84° |
| 2026-04-23 17:07 | 37.46908 | 15.09109 | 834 ft | 159 kts | 81° |
| 2026-04-23 17:07 | 37.47100 | 15.10480 | 1455 ft | 165 kts | 77° |
| 2026-04-23 17:08 | 37.47334 | 15.11961 | 1960 ft | 180 kts | 77° |
| 2026-04-23 17:08 | 37.47569 | 15.13556 | 2457 ft | 196 kts | 78° |
| 2026-04-23 17:08 | 37.47816 | 15.15323 | 2999 ft | 213 kts | 78° |
| 2026-04-23 17:08 | 37.48073 | 15.17182 | 3579 ft | 228 kts | 77° |
| 2026-04-23 17:09 | 37.48357 | 15.19212 | 4156 ft | 244 kts | 77° |
| 2026-04-23 17:09 | 37.48656 | 15.21368 | 4892 ft | 254 kts | 77° |
| 2026-04-23 17:09 | 37.48959 | 15.23548 | 5729 ft | 258 kts | 77° |
| 2026-04-23 17:09 | 37.49267 | 15.25798 | 6526 ft | 264 kts | 76° |
| 2026-04-23 17:10 | 37.49734 | 15.28003 | 7316 ft | 265 kts | 63° |
| 2026-04-23 17:10 | 37.50782 | 15.29857 | 7984 ft | 267 kts | 36° |
| 2026-04-23 17:10 | 37.52338 | 15.31156 | 8662 ft | 272 kts | 26° |
| 2026-04-23 17:10 | 37.53983 | 15.32337 | 9507 ft | 275 kts | 25° |
| 2026-04-23 17:11 | 37.55628 | 15.33554 | 10285 ft | 279 kts | 26° |
| 2026-04-23 17:11 | 37.57335 | 15.34861 | 10789 ft | 294 kts | 27° |
| 2026-04-23 17:11 | 37.59114 | 15.36248 | 11237 ft | 310 kts | 27° |
| 2026-04-23 17:11 | 37.60982 | 15.37711 | 11675 ft | 326 kts | 27° |
| 2026-04-23 17:12 | 37.62965 | 15.39269 | 12107 ft | 341 kts | 27° |
| 2026-04-23 17:12 | 37.65036 | 15.40898 | 12506 ft | 357 kts | 27° |
| 2026-04-23 17:12 | 37.67190 | 15.42565 | 12881 ft | 371 kts | 26° |
| 2026-04-23 17:12 | 37.69548 | 15.44052 | 13250 ft | 382 kts | 17° |
| 2026-04-23 17:13 | 37.72151 | 15.44748 | 13680 ft | 386 kts | 359° |
| 2026-04-23 17:13 | 37.74778 | 15.44452 | 14461 ft | 383 kts | 345° |
| 2026-04-23 17:13 | 37.77358 | 15.43506 | 15190 ft | 385 kts | 339° |
| 2026-04-23 17:13 | 37.79876 | 15.42338 | 15897 ft | 388 kts | 336° |
| 2026-04-23 17:14 | 37.82410 | 15.41072 | 16606 ft | 392 kts | 335° |
| 2026-04-23 17:14 | 37.84928 | 15.39784 | 17381 ft | 393 kts | 335° |
| 2026-04-23 17:14 | 37.87451 | 15.38490 | 18074 ft | 397 kts | 335° |
| 2026-04-23 17:14 | 37.90022 | 15.37179 | 18670 ft | 402 kts | 335° |
| 2026-04-23 17:15 | 37.92627 | 15.35858 | 19347 ft | 405 kts | 335° |
| 2026-04-23 17:15 | 37.95274 | 15.34524 | 20011 ft | 408 kts | 335° |
| 2026-04-23 17:15 | 37.97923 | 15.33191 | 20595 ft | 412 kts | 335° |
| 2026-04-23 17:15 | 38.00574 | 15.31857 | 21163 ft | 416 kts | 335° |
| 2026-04-23 17:16 | 38.03281 | 15.30497 | 21845 ft | 417 kts | 335° |
| 2026-04-23 17:16 | 38.05997 | 15.29131 | 22352 ft | 422 kts | 335° |
| 2026-04-23 17:16 | 38.08715 | 15.27763 | 22926 ft | 424 kts | 335° |
| 2026-04-23 17:16 | 38.11487 | 15.26366 | 23470 ft | 427 kts | 335° |
| 2026-04-23 17:17 | 38.14234 | 15.24981 | 24065 ft | 428 kts | 335° |
| 2026-04-23 17:17 | 38.17003 | 15.23583 | 24574 ft | 431 kts | 335° |
| 2026-04-23 17:17 | 38.18878 | 15.22635 | 24888 ft | 433 kts | 336° |
| 2026-04-23 17:17 | 38.22626 | 15.20738 | 25506 ft | 438 kts | 335° |
| 2026-04-23 17:18 | 38.28288 | 15.17870 | 26485 ft | 441 kts | 336° |
| 2026-04-23 17:18 | 38.31119 | 15.16435 | 27195 ft | 436 kts | 336° |
| 2026-04-23 17:18 | 38.33918 | 15.15015 | 27865 ft | 433 kts | 336° |
| 2026-04-23 17:19 | 38.36736 | 15.13583 | 28371 ft | 433 kts | 336° |
| 2026-04-23 17:19 | 38.39498 | 15.12179 | 28920 ft | 430 kts | 336° |
| 2026-04-23 17:19 | 38.42284 | 15.10758 | 29494 ft | 428 kts | 336° |
| 2026-04-23 17:19 | 38.44994 | 15.09249 | 29913 ft | 428 kts | 334° |
| 2026-04-23 17:20 | 38.47662 | 15.07493 | 30278 ft | 429 kts | 329° |
| 2026-04-23 17:20 | 38.52611 | 15.03287 | 31154 ft | 426 kts | 323° |
| 2026-04-23 17:21 | 38.57393 | 14.98699 | 31777 ft | 430 kts | 323° |
| 2026-04-23 17:21 | 38.59779 | 14.96395 | 32163 ft | 429 kts | 323° |
| 2026-04-23 17:21 | 38.64563 | 14.91768 | 32842 ft | 429 kts | 324° |
| 2026-04-23 17:22 | 38.66942 | 14.89466 | 33228 ft | 428 kts | 323° |
| 2026-04-23 17:22 | 38.71702 | 14.84856 | 33815 ft | 429 kts | 323° |
| 2026-04-23 17:23 | 38.76471 | 14.80236 | 34445 ft | 428 kts | 323° |
| 2026-04-23 17:23 | 38.78826 | 14.77951 | 34739 ft | 428 kts | 324° |
| 2026-04-23 17:23 | 38.83570 | 14.73342 | 35258 ft | 429 kts | 324° |
| 2026-04-23 17:24 | 38.85970 | 14.71007 | 35453 ft | 430 kts | 324° |
| 2026-04-23 17:24 | 38.88331 | 14.68708 | 35722 ft | 429 kts | 324° |
| 2026-04-23 17:24 | 38.93180 | 14.63983 | 36035 ft | 434 kts | 324° |
| 2026-04-23 17:25 | 39.00446 | 14.56891 | 36065 ft | 440 kts | 324° |
| 2026-04-23 17:26 | 39.10184 | 14.47348 | 36064 ft | 440 kts | 324° |
| 2026-04-23 17:27 | 39.17482 | 14.40172 | 36071 ft | 439 kts | 324° |
| 2026-04-23 17:27 | 39.22366 | 14.35359 | 36073 ft | 440 kts | 325° |
| 2026-04-23 17:28 | 39.27210 | 14.30577 | 36068 ft | 439 kts | 324° |
| 2026-04-23 17:28 | 39.32076 | 14.25767 | 36322 ft | 440 kts | 324° |
| 2026-04-23 17:29 | 39.34522 | 14.23344 | 36148 ft | 440 kts | 324° |
| 2026-04-23 17:29 | 39.36931 | 14.20954 | 36093 ft | 435 kts | 325° |
| 2026-04-23 17:30 | 39.43363 | 14.14567 | 36081 ft | 437 kts | 325° |
| 2026-04-23 17:30 | 39.51420 | 14.06554 | 36085 ft | 439 kts | 325° |
| 2026-04-23 17:31 | 39.56266 | 14.01720 | 36089 ft | 438 kts | 326° |
| 2026-04-23 17:31 | 39.61124 | 13.96864 | 36079 ft | 438 kts | 325° |
| 2026-04-23 17:32 | 39.65970 | 13.92015 | 36086 ft | 440 kts | 326° |
| 2026-04-23 17:32 | 39.70837 | 13.87137 | 36093 ft | 443 kts | 326° |
| 2026-04-23 17:33 | 39.75708 | 13.82243 | 36097 ft | 443 kts | 326° |
| 2026-04-23 17:33 | 39.80616 | 13.77300 | 36097 ft | 444 kts | 326° |
| 2026-04-23 17:34 | 39.85482 | 13.72384 | 36101 ft | 445 kts | 326° |
| 2026-04-23 17:35 | 39.92824 | 13.64961 | 36100 ft | 444 kts | 326° |
| 2026-04-23 17:35 | 40.00163 | 13.57524 | 36104 ft | 446 kts | 326° |
| 2026-04-23 17:36 | 40.05138 | 13.52470 | 36105 ft | 448 kts | 326° |
| 2026-04-23 17:36 | 40.10101 | 13.47417 | 36117 ft | 450 kts | 326° |
| 2026-04-23 17:37 | 40.15009 | 13.42413 | 36110 ft | 450 kts | 326° |
| 2026-04-23 17:38 | 40.22454 | 13.34800 | 36112 ft | 450 kts | 326° |
| 2026-04-23 17:38 | 40.24933 | 13.32260 | 35896 ft | 448 kts | 326° |
| 2026-04-23 17:38 | 40.27384 | 13.29744 | 36079 ft | 449 kts | 326° |
| 2026-04-23 17:39 | 40.32356 | 13.24643 | 36109 ft | 453 kts | 325° |
| 2026-04-23 17:39 | 40.37330 | 13.19525 | 36107 ft | 453 kts | 326° |
| 2026-04-23 17:40 | 40.42296 | 13.14407 | 36130 ft | 454 kts | 325° |
| 2026-04-23 17:40 | 40.47296 | 13.09240 | 36104 ft | 453 kts | 326° |
| 2026-04-23 17:41 | 40.52284 | 13.04077 | 36113 ft | 454 kts | 326° |
| 2026-04-23 17:41 | 40.59749 | 12.96339 | 36117 ft | 455 kts | 326° |
| 2026-04-23 17:42 | 40.67240 | 12.88547 | 36123 ft | 455 kts | 326° |
| 2026-04-23 17:43 | 40.72203 | 12.83371 | 36117 ft | 453 kts | 326° |
| 2026-04-23 17:43 | 40.77156 | 12.78196 | 36126 ft | 454 kts | 326° |
| 2026-04-23 17:44 | 40.82125 | 12.72994 | 36131 ft | 456 kts | 326° |
| 2026-04-23 17:44 | 40.89620 | 12.65129 | 36131 ft | 456 kts | 326° |
| 2026-04-23 17:45 | 40.97098 | 12.57257 | 36124 ft | 456 kts | 326° |
| 2026-04-23 17:46 | 41.04570 | 12.49369 | 36120 ft | 456 kts | 326° |
| 2026-04-23 17:46 | 41.09561 | 12.44087 | 36111 ft | 456 kts | 326° |
| 2026-04-23 17:47 | 41.14504 | 12.38845 | 36107 ft | 456 kts | 326° |
| 2026-04-23 17:48 | 41.21951 | 12.30926 | 36103 ft | 458 kts | 325° |
| 2026-04-23 17:48 | 41.26970 | 12.25575 | 36106 ft | 457 kts | 325° |
| 2026-04-23 17:49 | 41.31930 | 12.20278 | 36104 ft | 457 kts | 325° |
| 2026-04-23 17:49 | 41.36907 | 12.14954 | 36108 ft | 458 kts | 325° |
| 2026-04-23 17:50 | 41.41896 | 12.09605 | 36104 ft | 458 kts | 325° |
| 2026-04-23 17:50 | 41.49343 | 12.01602 | 36098 ft | 458 kts | 325° |
| 2026-04-23 17:51 | 41.54324 | 11.96233 | 36102 ft | 458 kts | 325° |
| 2026-04-23 17:52 | 41.61790 | 11.88166 | 36099 ft | 459 kts | 325° |
| 2026-04-23 17:52 | 41.69251 | 11.80079 | 36102 ft | 459 kts | 324° |
| 2026-04-23 17:53 | 41.76734 | 11.71941 | 36107 ft | 459 kts | 325° |
| 2026-04-23 17:54 | 41.81679 | 11.66551 | 36105 ft | 459 kts | 325° |
| 2026-04-23 17:54 | 41.89122 | 11.58418 | 36112 ft | 460 kts | 324° |
| 2026-04-23 17:55 | 41.96601 | 11.50223 | 36122 ft | 460 kts | 324° |
| 2026-04-23 17:56 | 42.01572 | 11.44760 | 36119 ft | 459 kts | 324° |
| 2026-04-23 17:56 | 42.09031 | 11.36544 | 36114 ft | 460 kts | 324° |
| 2026-04-23 17:57 | 42.13976 | 11.31083 | 36117 ft | 461 kts | 324° |
| 2026-04-23 17:58 | 42.21466 | 11.22784 | 36125 ft | 461 kts | 324° |
| 2026-04-23 17:58 | 42.26395 | 11.17311 | 36139 ft | 462 kts | 324° |
| 2026-04-23 17:59 | 42.31362 | 11.11783 | 36127 ft | 461 kts | 324° |
| 2026-04-23 17:59 | 42.36302 | 11.06274 | 36134 ft | 461 kts | 324° |
| 2026-04-23 18:00 | 42.41258 | 11.00736 | 36145 ft | 463 kts | 324° |
| 2026-04-23 18:00 | 42.46244 | 10.95152 | 36129 ft | 462 kts | 324° |
| 2026-04-23 18:01 | 42.51201 | 10.89589 | 36139 ft | 463 kts | 324° |
| 2026-04-23 18:01 | 42.56177 | 10.83992 | 36138 ft | 462 kts | 323° |
| 2026-04-23 18:02 | 42.60292 | 10.79356 | 36135 ft | 462 kts | 324° |
| 2026-04-23 18:02 | 42.66095 | 10.72805 | 36140 ft | 463 kts | 323° |
| 2026-04-23 18:03 | 42.71058 | 10.67186 | 36142 ft | 462 kts | 323° |
| 2026-04-23 18:03 | 42.76017 | 10.61560 | 36146 ft | 463 kts | 323° |
| 2026-04-23 18:04 | 42.80946 | 10.55958 | 36150 ft | 463 kts | 323° |
| 2026-04-23 18:04 | 42.85925 | 10.50286 | 36150 ft | 464 kts | 323° |
| 2026-04-23 18:05 | 42.90882 | 10.44628 | 36151 ft | 463 kts | 323° |
| 2026-04-23 18:05 | 42.95828 | 10.38969 | 36152 ft | 464 kts | 323° |
| 2026-04-23 18:06 | 43.00787 | 10.33284 | 36156 ft | 464 kts | 322° |
| 2026-04-23 18:06 | 43.05745 | 10.27585 | 36154 ft | 464 kts | 322° |
| 2026-04-23 18:07 | 43.10693 | 10.21885 | 36115 ft | 457 kts | 322° |
| 2026-04-23 18:07 | 43.13097 | 10.19107 | 35831 ft | 450 kts | 323° |
| 2026-04-23 18:07 | 43.15474 | 10.16359 | 35355 ft | 447 kts | 323° |
| 2026-04-23 18:07 | 43.17863 | 10.13598 | 34679 ft | 450 kts | 323° |
| 2026-04-23 18:08 | 43.19435 | 10.11780 | 34154 ft | 452 kts | 323° |
| 2026-04-23 18:08 | 43.22665 | 10.08046 | 32999 ft | 457 kts | 323° |
| 2026-04-23 18:08 | 43.25112 | 10.05213 | 32111 ft | 461 kts | 323° |
| 2026-04-23 18:08 | 43.27585 | 10.02345 | 31199 ft | 464 kts | 323° |
| 2026-04-23 18:09 | 43.30076 | 9.99453 | 30237 ft | 468 kts | 323° |
| 2026-04-23 18:09 | 43.32549 | 9.96576 | 29226 ft | 471 kts | 323° |
| 2026-04-23 18:09 | 43.35061 | 9.93698 | 28179 ft | 474 kts | 324° |
| 2026-04-23 18:09 | 43.37674 | 9.90963 | 27048 ft | 477 kts | 327° |
| 2026-04-23 18:10 | 43.40456 | 9.88415 | 25884 ft | 480 kts | 330° |
| 2026-04-23 18:10 | 43.43299 | 9.86040 | 24738 ft | 482 kts | 332° |
| 2026-04-23 18:10 | 43.46162 | 9.83774 | 23933 ft | 477 kts | 333° |
| 2026-04-23 18:10 | 43.49070 | 9.81530 | 23222 ft | 469 kts | 333° |
| 2026-04-23 18:11 | 43.51878 | 9.79383 | 22474 ft | 459 kts | 333° |
| 2026-04-23 18:11 | 43.54654 | 9.77262 | 21703 ft | 453 kts | 333° |
| 2026-04-23 18:11 | 43.57383 | 9.75175 | 20929 ft | 449 kts | 333° |
| 2026-04-23 18:11 | 43.60108 | 9.73084 | 20131 ft | 443 kts | 333° |
| 2026-04-23 18:12 | 43.62751 | 9.71048 | 19358 ft | 435 kts | 333° |
| 2026-04-23 18:12 | 43.65369 | 9.69024 | 18589 ft | 427 kts | 333° |
| 2026-04-23 18:12 | 43.67958 | 9.67017 | 17826 ft | 424 kts | 333° |
| 2026-04-23 18:12 | 43.70477 | 9.65061 | 17067 ft | 420 kts | 334° |
| 2026-04-23 18:13 | 43.72996 | 9.63100 | 16310 ft | 415 kts | 333° |
| 2026-04-23 18:13 | 43.75526 | 9.61125 | 15572 ft | 410 kts | 334° |
| 2026-04-23 18:13 | 43.77988 | 9.59202 | 14845 ft | 407 kts | 334° |
| 2026-04-23 18:13 | 43.80442 | 9.57283 | 14113 ft | 404 kts | 334° |
| 2026-04-23 18:14 | 43.82056 | 9.56019 | 13624 ft | 403 kts | 334° |
| 2026-04-23 18:14 | 43.85300 | 9.53477 | 12632 ft | 399 kts | 334° |
| 2026-04-23 18:14 | 43.87686 | 9.51605 | 11918 ft | 393 kts | 334° |
| 2026-04-23 18:14 | 43.90010 | 9.49777 | 11437 ft | 383 kts | 334° |
| 2026-04-23 18:15 | 43.92303 | 9.47971 | 11196 ft | 377 kts | 334° |
| 2026-04-23 18:15 | 43.94601 | 9.46163 | 11056 ft | 379 kts | 334° |
| 2026-04-23 18:15 | 43.96895 | 9.44360 | 10880 ft | 378 kts | 334° |
| 2026-04-23 18:15 | 43.99188 | 9.42655 | 10699 ft | 376 kts | 337° |
| 2026-04-23 18:16 | 44.01554 | 9.41076 | 10508 ft | 374 kts | 339° |
| 2026-04-23 18:16 | 44.03934 | 9.39598 | 10314 ft | 373 kts | 340° |
| 2026-04-23 18:16 | 44.06313 | 9.38159 | 9885 ft | 375 kts | 340° |
| 2026-04-23 18:17 | 44.10994 | 9.35316 | 8892 ft | 356 kts | 339° |
| 2026-04-23 18:17 | 44.13209 | 9.33950 | 8425 ft | 341 kts | 338° |
| 2026-04-23 18:17 | 44.15341 | 9.32628 | 7881 ft | 330 kts | 338° |
| 2026-04-23 18:17 | 44.17381 | 9.31358 | 7457 ft | 317 kts | 338° |
| 2026-04-23 18:18 | 44.19373 | 9.30117 | 7050 ft | 305 kts | 338° |
| 2026-04-23 18:18 | 44.21254 | 9.28943 | 6678 ft | 294 kts | 338° |
| 2026-04-23 18:18 | 44.23103 | 9.27789 | 6333 ft | 283 kts | 338° |
| 2026-04-23 18:18 | 44.24843 | 9.26702 | 6196 ft | 266 kts | 338° |
| 2026-04-23 18:19 | 44.26498 | 9.25666 | 6135 ft | 256 kts | 338° |
| 2026-04-23 18:19 | 44.28103 | 9.24630 | 6061 ft | 256 kts | 334° |
| 2026-04-23 18:19 | 44.29621 | 9.23306 | 5793 ft | 260 kts | 326° |
| 2026-04-23 18:19 | 44.31043 | 9.21796 | 5465 ft | 255 kts | 323° |
| 2026-04-23 18:20 | 44.32426 | 9.20256 | 5247 ft | 252 kts | 322° |
| 2026-04-23 18:20 | 44.33597 | 9.18419 | 5115 ft | 255 kts | 302° |
| 2026-04-23 18:20 | 44.34253 | 9.16145 | 4849 ft | 249 kts | 287° |
| 2026-04-23 18:20 | 44.34654 | 9.13877 | 4448 ft | 231 kts | 286° |
| 2026-04-23 18:21 | 44.35068 | 9.11812 | 4118 ft | 213 kts | 288° |
| 2026-04-23 18:21 | 44.35500 | 9.09918 | 3817 ft | 197 kts | 289° |
| 2026-04-23 18:21 | 44.35907 | 9.08135 | 3529 ft | 186 kts | 288° |
| 2026-04-23 18:21 | 44.36283 | 9.06452 | 3260 ft | 177 kts | 289° |
| 2026-04-23 18:22 | 44.36636 | 9.04871 | 3010 ft | 166 kts | 289° |
| 2026-04-23 18:22 | 44.36970 | 9.03381 | 2774 ft | 156 kts | 289° |
| 2026-04-23 18:22 | 44.37282 | 9.01983 | 2586 ft | 146 kts | 289° |
| 2026-04-23 18:22 | 44.37587 | 9.00615 | 2339 ft | 146 kts | 288° |
| 2026-04-23 18:23 | 44.37785 | 8.99731 | 2207 ft | 144 kts | 288° |
| 2026-04-23 18:23 | 44.38482 | 8.96600 | 1720 ft | 145 kts | 288° |
| 2026-04-23 18:24 | 44.39085 | 8.93892 | 1303 ft | 145 kts | 287° |
| 2026-04-23 18:24 | 44.39383 | 8.92549 | 1097 ft | 146 kts | 287° |
| 2026-04-23 18:24 | 44.39682 | 8.91200 | 893 ft | 145 kts | 287° |
| 2026-04-23 18:25 | 44.40281 | 8.88501 | 480 ft | 144 kts | 287° |
| 2026-04-23 18:25 | 44.40588 | 8.87172 | 266 ft | 145 kts | 287° |
| 2026-04-23 18:25 | 44.40868 | 8.85853 | 55 ft | 143 kts | 285° |
| 2026-04-23 18:25 | 44.41107 | 8.84622 | 20 ft | 104 kts | 285° |
| 2026-04-23 18:26 | 44.41256 | 8.83892 | 16 ft | 56 kts | 294° |
| 2026-04-23 18:26 | 44.41413 | 8.83781 | 16 ft | 19 kts | 50° |
| 2026-04-23 18:26 | 44.41386 | 8.83994 | 16 ft | 28 kts | 106° |
| 2026-04-23 18:26 | 44.41324 | 8.84298 | 16 ft | 33 kts | 103° |
| 2026-04-23 18:27 | 44.41384 | 8.84533 | 20 ft | 23 kts | 53° |
| 2026-04-23 18:27 | 44.41398 | 8.84725 | 25 ft | 18 kts | 99° |
| 2026-04-23 18:27 | 44.41404 | 8.84878 | 27 ft | 14 kts | 62° |
| 2026-04-23 18:27 | 44.41420 | 8.84923 | 27 ft | 0 kts | 63° |